CST,Max TemperatureF,Mean TemperatureF,Min TemperatureF,Max Dew PointF,MeanDew PointF,Min DewpointF,Max Humidity, Mean Humidity, Min Humidity, Max Sea Level PressureIn, Mean Sea Level PressureIn, Min Sea Level PressureIn, Max VisibilityMiles, Mean VisibilityMiles, Min VisibilityMiles, Max Wind SpeedMPH, Mean Wind SpeedMPH, Max Gust SpeedMPH,PrecipitationIn, CloudCover, Events, WindDirDegrees
2014-1-1,53,38,21,30,23,14,74,51,35,30.17,30.04,29.90,10,10,4,22,9,32,0.00,3,,185
2014-1-2,26,18,10,12,5,1,68,61,46,30.47,30.37,30.17,10,10,2,25,13,30,0.00,3,,324
2014-1-3,41,26,12,18,11,3,67,52,39,30.45,30.23,29.98,10,10,10,22,8,28,0.00,0,,138
2014-1-4,44,38,33,36,28,16,81,64,48,29.98,29.86,29.80,10,9,4,26,14,36,0.00,5,,136
2014-1-5,39,22,5,34,8,-8,87,65,48,30.49,30.12,29.80,10,6,1,25,14,32,0.08,6,,330
2014-1-6,10,3,-4,-6,-11,-18,72,51,41,30.63,30.55,30.48,10,10,10,17,8,23,0.00,0,,284
2014-1-7,35,18,0,19,7,-11,66,54,48,30.47,30.32,30.22,10,10,10,21,9,24,0.00,0,,159
2014-1-8,35,32,28,28,21,10,81,65,44,30.30,30.25,30.23,10,6,1,12,8,17,0.04,5,,128
2014-1-9,37,34,32,32,28,27,81,79,75,30.26,30.18,30.04,10,8,2,9,5,,0.00,8,,130
2014-1-10,53,45,37,48,41,28,87,80,58,30.02,29.77,29.60,10,8,3,24,9,31,0.00,6,Thunderstorm,169
2014-1-11,51,40,30,36,28,25,81,64,44,30.03,29.92,29.72,10,10,10,16,8,22,0.00,0,,240
2014-1-12,66,48,30,36,27,19,75,43,24,30.00,29.82,29.68,10,10,9,36,15,46,0.00,0,,156
2014-1-13,55,45,35,45,30,21,70,53,35,29.97,29.88,29.70,10,10,10,22,12,28,0.00,1,,262
2014-1-14,48,39,30,32,20,10,61,47,34,30.24,30.06,29.89,10,10,10,22,9,29,0.00,2,,270
2014-1-15,41,31,21,18,14,9,63,47,39,30.30,30.18,29.97,10,10,10,16,8,23,0.00,2,,254
2014-1-16,51,42,33,28,20,14,60,42,26,30.07,29.97,29.90,10,10,10,25,12,37,0.00,2,,242
2014-1-17,37,29,21,16,7,3,50,38,26,30.24,30.17,30.08,10,10,10,25,16,33,0.00,0,,255
2014-1-18,57,40,23,25,18,9,55,40,28,30.13,29.99,29.87,10,10,10,25,13,36,0.00,0,,219
2014-1-19,57,39,21,27,19,10,69,46,29,30.21,30.09,29.97,10,10,10,17,10,25,0.00,0,,174
2014-1-20,60,46,32,30,24,18,60,41,28,30.19,29.98,29.89,10,10,10,24,8,34,0.00,0,,234
2014-1-21,37,26,14,18,4,0,58,45,31,30.42,30.29,30.16,10,10,10,29,15,34,0.00,0,,283
2014-1-22,42,30,17,19,10,1,58,47,36,30.29,30.17,30.11,10,10,10,20,5,28,0.00,0,,294
2014-1-23,30,18,6,12,-4,-8,61,43,30,30.75,30.62,30.29,10,10,10,21,12,26,0.00,2,,316
2014-1-24,35,18,1,3,-2,-9,72,42,20,30.73,30.40,30.03,10,10,10,21,8,31,0.00,0,,156
2014-1-25,57,44,30,32,20,5,70,44,30,30.05,30.00,29.94,10,10,10,23,11,29,0.00,2,,226
2014-1-26,66,48,30,32,27,21,70,48,24,29.97,29.80,29.69,10,10,10,31,9,39,0.00,0,,185
2014-1-27,28,22,15,9,-4,-8,47,36,32,30.42,30.33,30.11,10,10,10,25,16,32,0.00,6,,314
2014-1-28,28,20,12,1,-3,-6,57,40,27,30.49,30.41,30.35,10,10,5,12,7,,0.00,2,,304
2014-1-29,39,24,8,10,5,-2,67,44,28,30.36,30.26,30.08,10,10,10,17,6,25,0.00,0,,134
2014-1-30,48,38,28,25,16,5,65,43,31,30.08,29.92,29.83,10,10,10,32,16,44,0.00,0,,116
2014-1-31,48,42,35,41,34,23,81,70,60,29.92,29.86,29.78,10,9,4,12,6,,0.00,8,,53